Southbridge, Massachusetts
Current Conditions -  °F | °C
As of 10:54 PM on Tuesday 25 Nov 2014 (Local Time) from KORH Reporting Station
Clear Clear  
Wind Chill: 36°   Ceiling: Unl
Heat Index: 40°   Visibility: 10mi
Dew Point: 27°   Wind: 6mph
Humidity: 60%   Direction: 240°WSW
Pressure: 30.08"   Gusts: NA
Location:  42.07°N, 72.03°W
Report Text: KORH 260354Z AUTO 24005KT 10SM CLR 04/M03 A3008 RMK AO2 SLP190 T00441028
Loading
Personal Weather Stations






























Interactive Weather Map New forecast layout! Learn more

10-Day Weather Forecast

Advertisements
Track Severe Weather on mobile